Time;durP1;ratioP1;P1;durP2;ratioP2;P2;SDS_P1;SDS_P2;PMS_P1;PMS_P2;Temp;Humidity;BMP_temperature;BMP_pressure;BME280_temperature;BME280_humidity;BME280_pressure;Samples;Min_cycle;Max_cycle;Signal;HPM_P1;HPM_P2
2022/05/28 00:01:04;;;;;;;11.00;6.15;;;;;;;-147.76;100.00;60361.69;5072080;28;20049;-74
2022/05/28 00:03:33;;;;;;;11.82;6.03;;;;;;;-147.76;100.00;60361.69;5071720;28;20051;-73
2022/05/28 00:06:00;;;;;;;14.27;7.00;;;;;;;-147.76;100.00;60361.69;5071769;28;20048;-73
2022/05/28 00:08:28;;;;;;;14.48;6.60;;;;;;;-147.76;100.00;60361.69;5072290;27;20436;-73
2022/05/28 00:10:58;;;;;;;13.52;6.45;;;;;;;-147.76;100.00;60361.69;5072004;28;20051;-73
2022/05/28 00:13:27;;;;;;;12.30;5.93;;;;;;;-147.76;100.00;60361.69;5072068;27;20056;-73
2022/05/28 00:15:54;;;;;;;12.88;6.95;;;;;;;-147.76;100.00;60361.69;5071862;28;20041;-73
2022/05/28 00:18:22;;;;;;;11.98;6.15;;;;;;;-147.76;100.00;60361.69;5071527;28;20056;-73
2022/05/28 00:20:50;;;;;;;12.50;6.28;;;;;;;-147.76;100.00;60361.69;5071934;28;20055;-73
2022/05/28 00:23:17;;;;;;;11.82;6.00;;;;;;;-147.76;100.00;60361.69;5071436;27;20440;-73
2022/05/28 00:25:45;;;;;;;13.63;6.05;;;;;;;-147.76;100.00;60361.69;5071665;28;20402;-73
2022/05/28 00:28:14;;;;;;;10.85;5.43;;;;;;;-147.76;100.00;60361.69;5071770;28;20131;-74
2022/05/28 00:30:43;;;;;;;14.13;5.90;;;;;;;-147.76;100.00;60361.69;5071490;28;20052;-74
2022/05/28 00:33:11;;;;;;;12.85;5.53;;;;;;;-147.76;100.00;60361.69;5071129;28;20048;-73
2022/05/28 00:35:43;;;;;;;12.07;6.03;;;;;;;-147.76;100.00;60361.69;5071428;28;20053;-73
2022/05/28 00:38:10;;;;;;;13.27;5.07;;;;;;;-147.76;100.00;60361.69;5071589;28;20044;-74
2022/05/28 00:40:38;;;;;;;11.48;5.28;;;;;;;-147.76;100.00;60361.69;5071339;28;20045;-74
2022/05/28 00:43:06;;;;;;;9.38;4.95;;;;;;;-147.76;100.00;60361.69;5071563;27;20044;-73
2022/05/28 00:45:34;;;;;;;10.27;4.90;;;;;;;-147.76;100.00;60361.69;5071316;28;20509;-74
2022/05/28 00:48:05;;;;;;;12.38;4.82;;;;;;;-147.76;100.00;60361.69;5071375;27;20055;-73
2022/05/28 00:50:35;;;;;;;13.10;5.28;;;;;;;-147.76;100.00;60361.69;5071686;28;20044;-74
2022/05/28 00:53:03;;;;;;;11.75;5.00;;;;;;;-147.76;100.00;60361.69;5071140;28;20045;-74
2022/05/28 00:55:32;;;;;;;10.43;4.70;;;;;;;-147.76;100.00;60361.69;5071167;28;20048;-73
2022/05/28 00:58:00;;;;;;;14.05;4.95;;;;;;;-147.76;100.00;60361.69;5071132;28;20069;-73
2022/05/28 01:00:27;;;;;;;8.93;4.20;;;;;;;-147.76;100.00;60361.69;5070827;28;20049;-73
2022/05/28 01:02:58;;;;;;;12.23;4.32;;;;;;;-147.76;100.00;60361.69;5071240;28;20045;-74
2022/05/28 01:05:32;;;;;;;10.75;4.38;;;;;;;-147.76;100.00;60361.69;5072688;28;20498;-74
2022/05/28 01:08:08;;;;;;;9.73;4.47;;;;;;;-147.76;100.00;60361.69;5073122;28;20100;-73
2022/05/28 01:10:41;;;;;;;10.87;4.97;;;;;;;-147.76;100.00;60361.69;5070901;28;20075;-73
2022/05/28 01:13:12;;;;;;;10.45;4.40;;;;;;;-147.76;100.00;60361.69;5071159;28;20310;-74
2022/05/28 01:15:43;;;;;;;10.65;4.70;;;;;;;-147.76;100.00;60361.69;5071536;28;20051;-73
2022/05/28 01:18:14;;;;;;;10.73;4.13;;;;;;;-147.76;100.00;60361.69;5072100;28;20270;-74
2022/05/28 01:20:46;;;;;;;9.65;4.57;;;;;;;-147.76;100.00;60361.69;5070897;28;20040;-73
2022/05/28 01:23:22;;;;;;;14.27;4.85;;;;;;;-147.76;100.00;60361.69;5070820;28;20093;-73
2022/05/28 01:25:57;;;;;;;8.80;3.83;;;;;;;-147.76;100.00;60361.69;5070964;28;20059;-74
2022/05/28 01:28:30;;;;;;;12.65;4.25;;;;;;;-147.76;100.00;60361.69;5070731;28;20112;-74
2022/05/28 01:30:58;;;;;;;10.85;4.07;;;;;;;-147.76;100.00;60361.69;5071028;28;20051;-74
2022/05/28 01:33:27;;;;;;;8.07;3.80;;;;;;;-147.76;100.00;60361.69;5069796;28;20105;-74
2022/05/28 01:35:54;;;;;;;11.88;4.00;;;;;;;-147.76;100.00;60361.69;5070492;28;20509;-73
2022/05/28 01:38:22;;;;;;;10.98;4.28;;;;;;;-147.76;100.00;60361.69;5070623;28;20044;-73
2022/05/28 01:40:51;;;;;;;8.60;3.90;;;;;;;-147.76;100.00;60361.69;5070539;28;20066;-73
2022/05/28 01:43:19;;;;;;;12.30;4.63;;;;;;;-147.76;100.00;60361.69;5069858;28;20045;-73
2022/05/28 01:45:49;;;;;;;9.68;3.90;;;;;;;-147.76;100.00;60361.69;5070188;28;20056;-73
2022/05/28 01:48:18;;;;;;;9.73;3.75;;;;;;;-147.76;100.00;60361.69;5070360;28;20044;-74
2022/05/28 01:50:48;;;;;;;8.93;3.50;;;;;;;-147.76;100.00;60361.69;5070377;28;20049;-74
2022/05/28 01:56:01;;;;;;;10.43;4.03;;;;;;;-147.76;100.00;60361.69;5071544;28;20056;-74
2022/05/28 01:58:28;;;;;;;11.00;3.65;;;;;;;-147.76;100.00;60361.69;5068860;27;20049;-73
2022/05/28 02:00:57;;;;;;;9.93;3.97;;;;;;;-147.76;100.00;60361.69;5069283;28;20040;-73
2022/05/28 02:03:25;;;;;;;9.32;4.00;;;;;;;-147.76;100.00;60361.69;5070109;28;20044;-74
2022/05/28 02:05:53;;;;;;;9.88;4.10;;;;;;;-147.76;100.00;60361.69;5070091;27;20268;-73
2022/05/28 02:08:20;;;;;;;9.98;4.32;;;;;;;-147.76;100.00;60361.69;5070158;28;20068;-74
2022/05/28 02:10:50;;;;;;;12.57;3.70;;;;;;;-147.76;100.00;60361.69;5070096;28;20049;-74
2022/05/28 02:13:24;;;;;;;10.20;3.60;;;;;;;-147.76;100.00;60361.69;5069543;28;20048;-73
2022/05/28 02:15:57;;;;;;;10.27;3.75;;;;;;;-147.76;100.00;60361.69;5070478;28;20104;-74
2022/05/28 02:18:27;;;;;;;9.30;3.65;;;;;;;-147.76;100.00;60361.69;5070678;28;20387;-73
2022/05/28 02:21:01;;;;;;;10.75;3.97;;;;;;;-147.76;100.00;60361.69;5071176;28;20040;-74
2022/05/28 02:23:30;;;;;;;8.88;3.60;;;;;;;-147.76;100.00;60361.69;5071488;28;20425;-74
2022/05/28 02:26:05;;;;;;;8.15;3.70;;;;;;;-147.76;100.00;60361.69;5070176;28;20048;-73
2022/05/28 02:28:34;;;;;;;10.95;3.78;;;;;;;-147.76;100.00;60361.69;5070029;28;20053;-73
2022/05/28 02:31:12;;;;;;;9.98;3.67;;;;;;;-147.76;100.00;60361.69;5069661;28;20459;-74
2022/05/28 02:33:39;;;;;;;9.20;3.67;;;;;;;-147.76;100.00;60361.69;5070694;28;20052;-73
2022/05/28 02:36:07;;;;;;;10.38;3.72;;;;;;;-147.76;100.00;60361.69;5069837;27;20048;-74
2022/05/28 02:38:35;;;;;;;8.13;3.60;;;;;;;-147.76;100.00;60361.69;5069702;28;20044;-74
2022/05/28 02:41:02;;;;;;;9.80;3.50;;;;;;;-147.76;100.00;60361.69;5069764;27;20040;-73
2022/05/28 02:43:31;;;;;;;12.35;3.90;;;;;;;-147.76;100.00;60361.69;5069325;28;20550;-73
2022/05/28 02:45:59;;;;;;;7.30;3.30;;;;;;;-147.76;100.00;60361.69;5071597;28;20505;-74
2022/05/28 02:48:28;;;;;;;6.95;3.15;;;;;;;-147.76;100.00;60361.69;5073389;28;20049;-73
2022/05/28 02:51:02;;;;;;;9.30;3.20;;;;;;;-147.76;100.00;60361.69;5073182;28;20048;-74
2022/05/28 02:53:30;;;;;;;10.07;3.38;;;;;;;-147.76;100.00;60361.69;5074572;28;20040;-73
2022/05/28 02:55:57;;;;;;;7.40;3.30;;;;;;;-147.76;100.00;60361.69;5073223;28;20052;-74
2022/05/28 02:58:25;;;;;;;9.00;3.10;;;;;;;-147.76;100.00;60361.69;5053908;28;20045;-73
2022/05/28 03:00:53;;;;;;;10.00;3.35;;;;;;;-147.76;100.00;60361.69;5052725;28;20041;-74
2022/05/28 03:03:20;;;;;;;14.02;3.30;;;;;;;-147.76;100.00;60361.69;5052723;27;20551;-74
2022/05/28 03:05:51;;;;;;;8.38;3.22;;;;;;;-147.76;100.00;60361.69;5052864;28;20060;-73
2022/05/28 03:08:18;;;;;;;11.77;3.33;;;;;;;-147.76;100.00;60361.69;5053181;28;20049;-73
2022/05/28 03:10:46;;;;;;;7.60;3.28;;;;;;;-147.76;100.00;60361.69;5051263;28;20049;-74
2022/05/28 03:13:14;;;;;;;9.88;3.25;;;;;;;-147.76;100.00;60361.69;5052139;28;20045;-74
2022/05/28 03:15:42;;;;;;;11.10;3.30;;;;;;;-147.76;100.00;60361.69;5052625;28;20435;-73
2022/05/28 03:18:09;;;;;;;8.50;3.10;;;;;;;-147.76;100.00;60361.69;5052725;27;20380;-73
2022/05/28 03:20:38;;;;;;;9.43;3.00;;;;;;;-147.76;100.00;60361.69;5052914;27;20041;-74
2022/05/28 03:23:07;;;;;;;9.07;3.00;;;;;;;-147.76;100.00;60361.69;5052704;28;20119;-74
2022/05/28 03:25:35;;;;;;;9.30;3.17;;;;;;;-147.76;100.00;60361.69;5052328;28;20052;-73
2022/05/28 03:28:02;;;;;;;6.90;3.10;;;;;;;-147.76;100.00;60361.69;5052691;28;20056;-74
2022/05/28 03:30:30;;;;;;;7.78;2.92;;;;;;;-147.76;100.00;60361.69;5052615;28;20041;-73
2022/05/28 03:32:57;;;;;;;8.23;3.33;;;;;;;-147.76;100.00;60361.69;5052702;28;20048;-73
2022/05/28 03:35:25;;;;;;;10.68;3.25;;;;;;;-147.76;100.00;60361.69;5052562;28;20048;-74
2022/05/28 03:37:52;;;;;;;7.32;3.00;;;;;;;-147.76;100.00;60361.69;5052554;28;20045;-74
2022/05/28 03:40:21;;;;;;;7.13;2.67;;;;;;;-147.76;100.00;60361.69;5052097;28;20049;-73
2022/05/28 03:42:49;;;;;;;7.07;2.78;;;;;;;-147.76;100.00;60361.69;5052380;28;20072;-73
2022/05/28 03:45:16;;;;;;;8.32;2.80;;;;;;;-147.76;100.00;60361.69;5052332;28;20651;-74
2022/05/28 03:47:44;;;;;;;5.35;2.47;;;;;;;-147.76;100.00;60361.69;5052470;28;20045;-73
2022/05/28 03:50:11;;;;;;;5.47;2.70;;;;;;;-147.76;100.00;60361.69;5052337;28;20508;-73
2022/05/28 03:52:39;;;;;;;8.45;2.67;;;;;;;-147.76;100.00;60361.69;5052405;27;20049;-75
2022/05/28 03:55:07;;;;;;;7.05;2.50;;;;;;;-147.76;100.00;60361.69;5051732;28;20067;-74
2022/05/28 03:57:36;;;;;;;6.93;2.50;;;;;;;-147.76;100.00;60361.69;5057906;28;20044;-73
2022/05/28 04:00:06;;;;;;;9.52;2.70;;;;;;;-147.76;100.00;60361.69;5072080;28;20101;-73
2022/05/28 04:02:33;;;;;;;9.25;2.83;;;;;;;-147.76;100.00;60361.69;5072031;28;20052;-73
2022/05/28 04:05:02;;;;;;;6.95;2.40;;;;;;;-147.76;100.00;60361.69;5072085;27;20060;-73
2022/05/28 04:07:29;;;;;;;11.57;2.65;;;;;;;-147.76;100.00;60361.69;5072027;28;20510;-74
2022/05/28 04:09:57;;;;;;;6.75;2.45;;;;;;;-147.76;100.00;60361.69;5071402;28;20044;-73
2022/05/28 04:12:24;;;;;;;6.82;2.40;;;;;;;-147.76;100.00;60361.69;5072120;27;20052;-74
2022/05/28 04:14:53;;;;;;;8.68;2.40;;;;;;;-147.76;100.00;60361.69;5071900;28;20052;-74
2022/05/28 04:17:21;;;;;;;6.80;2.67;;;;;;;-147.76;100.00;60361.69;5071287;27;20067;-74
2022/05/28 04:19:48;;;;;;;6.55;2.60;;;;;;;-147.76;100.00;60361.69;5071697;28;20410;-74
2022/05/28 04:22:16;;;;;;;9.82;3.60;;;;;;;-147.76;100.00;60361.69;5061548;28;20053;-73
2022/05/28 04:24:43;;;;;;;5.95;2.72;;;;;;;-147.76;100.00;60361.69;5051309;28;20411;-74
2022/05/28 04:27:11;;;;;;;5.47;2.40;;;;;;;-147.76;100.00;60361.69;5051617;28;20060;-74
2022/05/28 04:29:38;;;;;;;11.82;2.67;;;;;;;-147.76;100.00;60361.69;5051635;28;20506;-73
2022/05/28 04:32:09;;;;;;;6.57;2.60;;;;;;;-147.76;100.00;60361.69;5051622;28;20045;-74
2022/05/28 04:34:36;;;;;;;5.15;2.60;;;;;;;-147.76;100.00;60361.69;5051369;28;20041;-74
2022/05/28 04:37:04;;;;;;;8.25;2.40;;;;;;;-147.76;100.00;60361.69;5051481;28;20057;-74
2022/05/28 04:39:32;;;;;;;9.98;2.95;;;;;;;-147.76;100.00;60361.69;5051181;28;20045;-73
2022/05/28 04:41:59;;;;;;;10.05;2.70;;;;;;;-147.76;100.00;60361.69;5051483;28;20055;-74
2022/05/28 04:44:27;;;;;;;9.25;2.63;;;;;;;-147.76;100.00;60361.69;5051390;28;20051;-73
2022/05/28 04:46:54;;;;;;;6.38;2.40;;;;;;;-147.76;100.00;60361.69;5051368;28;20041;-74
2022/05/28 04:49:23;;;;;;;8.40;2.72;;;;;;;-147.76;100.00;60361.69;5051283;28;20552;-74
2022/05/28 04:51:51;;;;;;;7.28;2.53;;;;;;;-147.76;100.00;60361.69;5051280;28;20048;-74
2022/05/28 04:54:18;;;;;;;6.07;2.30;;;;;;;-147.76;100.00;60361.69;5050991;28;20045;-74
2022/05/28 04:56:46;;;;;;;6.30;2.38;;;;;;;-147.76;100.00;60361.69;5051125;28;20056;-74
2022/05/28 04:59:13;;;;;;;7.50;2.50;;;;;;;-147.76;100.00;60361.69;5051060;27;20049;-75
2022/05/28 05:01:41;;;;;;;9.07;2.30;;;;;;;-147.76;100.00;60361.69;5051144;28;20074;-74
2022/05/28 05:04:08;;;;;;;8.02;2.40;;;;;;;-147.76;100.00;60361.69;5051280;28;20484;-73
2022/05/28 05:06:37;;;;;;;7.75;2.20;;;;;;;-147.76;100.00;60361.69;5050529;28;20057;-74
2022/05/28 05:09:05;;;;;;;5.80;2.25;;;;;;;-147.76;100.00;60361.69;5050770;28;20049;-73
2022/05/28 05:11:32;;;;;;;6.03;2.40;;;;;;;-147.76;100.00;60361.69;5051037;28;20058;-74
2022/05/28 05:14:00;;;;;;;8.20;2.25;;;;;;;-147.76;100.00;60361.69;5050989;28;20045;-75
2022/05/28 05:16:27;;;;;;;7.53;2.60;;;;;;;-147.76;100.00;60361.69;5050833;28;20049;-74
2022/05/28 05:18:55;;;;;;;6.63;2.13;;;;;;;-147.76;100.00;60361.69;5050801;28;20171;-73
2022/05/28 05:21:22;;;;;;;6.70;2.45;;;;;;;-147.76;100.00;60361.69;5048191;28;20406;-74
2022/05/28 05:23:51;;;;;;;11.60;2.60;;;;;;;-147.76;100.00;60361.69;5047447;28;20049;-74
2022/05/28 05:26:21;;;;;;;11.35;2.47;;;;;;;-147.76;100.00;60361.69;5046942;28;20045;-74
2022/05/28 05:28:50;;;;;;;16.52;4.18;;;;;;;-147.76;100.00;60361.69;5048661;28;20041;-74
2022/05/28 05:31:18;;;;;;;7.80;2.47;;;;;;;-147.76;100.00;60361.69;5047229;28;20074;-75
2022/05/28 05:33:45;;;;;;;9.43;2.95;;;;;;;-147.76;100.00;60361.69;5047003;28;20056;-74
2022/05/28 05:36:13;;;;;;;9.60;2.70;;;;;;;-147.76;100.00;60361.69;5046949;28;20049;-74
2022/05/28 05:38:41;;;;;;;8.40;2.63;;;;;;;-147.76;100.00;60361.69;5046950;28;20049;-73
2022/05/28 05:41:11;;;;;;;8.00;2.70;;;;;;;-147.76;100.00;60361.69;5046917;27;20049;-74
2022/05/28 05:43:39;;;;;;;9.52;2.70;;;;;;;-147.76;100.00;60361.69;5047050;28;20045;-74
2022/05/28 05:46:08;;;;;;;5.65;2.17;;;;;;;-147.76;100.00;60361.69;5047205;28;20124;-74
2022/05/28 05:48:35;;;;;;;5.45;2.10;;;;;;;-147.76;100.00;60361.69;5046946;28;20052;-74
2022/05/28 05:51:07;;;;;;;5.95;2.60;;;;;;;-147.76;100.00;60361.69;5046116;28;20091;-74
2022/05/28 05:53:34;;;;;;;8.38;2.28;;;;;;;-147.76;100.00;60361.69;5047053;28;20049;-75
2022/05/28 05:56:02;;;;;;;10.82;2.38;;;;;;;-147.76;100.00;60361.69;5046895;28;20499;-75
2022/05/28 05:58:31;;;;;;;8.45;2.42;;;;;;;-147.76;100.00;60361.69;5060890;28;20052;-74
2022/05/28 06:00:58;;;;;;;9.70;3.13;;;;;;;-147.76;100.00;60361.69;5066699;28;20052;-74
2022/05/28 06:03:26;;;;;;;11.75;3.20;;;;;;;-147.76;100.00;60361.69;5066446;28;20059;-74
2022/05/28 06:05:57;;;;;;;7.68;2.50;;;;;;;-147.76;100.00;60361.69;5066346;28;20049;-74
2022/05/28 06:08:25;;;;;;;10.32;2.60;;;;;;;-147.76;100.00;60361.69;5067267;28;20225;-74
2022/05/28 06:10:53;;;;;;;10.10;3.20;;;;;;;-147.76;100.00;60361.69;5066930;27;20056;-75
2022/05/28 06:13:20;;;;;;;11.90;3.22;;;;;;;-147.76;100.00;60361.69;5066332;27;20391;-75
2022/05/28 06:15:50;;;;;;;10.73;3.72;;;;;;;-147.76;100.00;60361.69;5066473;28;20053;-75
2022/05/28 06:18:17;;;;;;;13.10;3.83;;;;;;;-147.76;100.00;60361.69;5066502;28;20053;-75
2022/05/28 06:20:45;;;;;;;12.95;3.92;;;;;;;-147.76;100.00;60361.69;5065450;28;20044;-74
2022/05/28 06:23:12;;;;;;;11.43;3.78;;;;;;;-147.76;100.00;60361.69;5066527;28;20048;-78
2022/05/28 06:25:40;;;;;;;8.65;3.40;;;;;;;-147.76;100.00;60361.69;5068922;28;20048;-74
2022/05/28 06:28:07;;;;;;;8.85;3.58;;;;;;;-147.76;100.00;60361.69;5068993;28;20490;-75
2022/05/28 06:30:35;;;;;;;11.50;3.70;;;;;;;-147.76;100.00;60361.69;5069081;28;20073;-75
2022/05/28 06:33:04;;;;;;;16.80;4.53;;;;;;;-147.76;100.00;60361.69;5069637;28;20048;-75
2022/05/28 06:35:32;;;;;;;10.77;4.28;;;;;;;-147.76;100.00;60361.69;5069491;28;20067;-75
2022/05/28 06:38:00;;;;;;;14.70;4.20;;;;;;;-147.76;100.00;60361.69;5069734;28;20060;-75
2022/05/28 06:40:28;;;;;;;16.77;6.75;;;;;;;-147.76;100.00;60361.69;5069718;28;20055;-75
2022/05/28 06:42:56;;;;;;;16.45;7.18;;;;;;;-147.76;100.00;60361.69;5069744;28;20060;-75
2022/05/28 06:45:24;;;;;;;10.68;4.88;;;;;;;-147.76;100.00;60361.69;5069690;28;20048;-75
2022/05/28 06:47:52;;;;;;;20.08;10.63;;;;;;;-147.76;100.00;60361.69;5069645;28;20049;-75
2022/05/28 06:53:09;;;;;;;11.45;5.63;;;;;;;-147.76;100.00;60361.69;5070193;28;20045;-75
2022/05/28 06:55:36;;;;;;;8.00;2.80;;;;;;;-147.76;100.00;60361.69;5069342;28;20460;-76
2022/05/28 06:58:04;;;;;;;5.20;2.50;;;;;;;-147.76;100.00;60361.69;5069430;28;20048;-75
2022/05/28 07:00:32;;;;;;;8.30;2.58;;;;;;;-147.76;100.00;60361.69;5068804;28;20041;-77
2022/05/28 07:02:59;;;;;;;5.40;2.22;;;;;;;-147.76;100.00;60361.69;5067382;28;20403;-77
2022/05/28 07:05:29;;;;;;;5.85;2.10;;;;;;;-147.76;100.00;60361.69;5069204;27;20079;-76
2022/05/28 07:07:57;;;;;;;6.45;2.15;;;;;;;-147.76;100.00;60361.69;5069352;28;20500;-77
2022/05/28 07:10:25;;;;;;;5.43;2.00;;;;;;;-147.76;100.00;60361.69;5069243;28;20044;-76
2022/05/28 07:12:52;;;;;;;6.40;2.22;;;;;;;-147.76;100.00;60361.69;5069396;28;20483;-77
2022/05/28 07:15:20;;;;;;;7.85;2.58;;;;;;;-147.76;100.00;60361.69;5069340;28;20121;-77
2022/05/28 07:17:47;;;;;;;5.78;2.30;;;;;;;-147.76;100.00;60361.69;5069024;28;20044;-77
2022/05/28 07:20:15;;;;;;;8.88;2.75;;;;;;;-147.76;100.00;60361.69;5069059;28;20048;-77
2022/05/28 07:22:44;;;;;;;9.20;2.47;;;;;;;-147.76;100.00;60361.69;5069204;27;20554;-77
2022/05/28 07:25:12;;;;;;;6.25;2.00;;;;;;;-147.76;100.00;60361.69;5069183;28;20055;-77
2022/05/28 07:27:39;;;;;;;99.82;33.25;;;;;;;-147.76;100.00;60361.69;5069169;28;20371;-76
2022/05/28 07:30:08;;;;;;;17.10;9.77;;;;;;;-147.76;100.00;60361.69;5069210;28;20052;-77
2022/05/28 07:32:36;;;;;;;22.55;12.02;;;;;;;-147.76;100.00;60361.69;5070183;28;20044;-76
2022/05/28 07:35:03;;;;;;;28.08;14.18;;;;;;;-147.76;100.00;60361.69;5072563;28;20048;-77
2022/05/28 07:37:32;;;;;;;9.73;2.75;;;;;;;-147.76;100.00;60361.69;5072527;28;20105;-77
2022/05/28 07:40:01;;;;;;;5.90;1.73;;;;;;;-147.76;100.00;60361.69;5072626;28;20414;-77
2022/05/28 07:42:29;;;;;;;6.22;1.70;;;;;;;-147.76;100.00;60361.69;5072424;28;20443;-77
2022/05/28 07:44:56;;;;;;;5.15;1.88;;;;;;;-147.76;100.00;60361.69;5071363;27;20554;-76
2022/05/28 07:47:24;;;;;;;6.13;1.70;;;;;;;-147.76;100.00;60361.69;5072287;27;20056;-77
2022/05/28 07:49:52;;;;;;;3.85;1.63;;;;;;;-147.76;100.00;60361.69;5072352;28;20052;-77
2022/05/28 07:52:19;;;;;;;6.97;1.90;;;;;;;-147.76;100.00;60361.69;5072347;28;20490;-77
2022/05/28 07:54:47;;;;;;;3.58;1.67;;;;;;;-147.76;100.00;60361.69;5072394;28;20045;-76
2022/05/28 07:57:16;;;;;;;4.93;1.70;;;;;;;-147.76;100.00;60361.69;5072314;27;20047;-78
2022/05/28 07:59:44;;;;;;;4.80;1.90;;;;;;;-147.76;100.00;60361.69;5072118;28;20056;-77
2022/05/28 08:02:11;;;;;;;15.27;6.30;;;;;;;-147.76;100.00;60361.69;5072025;28;20055;-77
2022/05/28 08:04:39;;;;;;;10.35;2.47;;;;;;;-147.76;100.00;60361.69;5071870;28;20068;-76
2022/05/28 08:07:06;;;;;;;3.92;1.70;;;;;;;-147.76;100.00;60361.69;5071953;28;20040;-77
2022/05/28 08:09:34;;;;;;;8.00;1.85;;;;;;;-147.76;100.00;60361.69;5071976;28;20044;-76
2022/05/28 08:12:01;;;;;;;4.95;1.90;;;;;;;-147.76;100.00;60361.69;5072139;28;20048;-77
2022/05/28 08:14:31;;;;;;;5.00;2.00;;;;;;;-147.76;100.00;60361.69;5072041;28;20044;-77
2022/05/28 08:16:58;;;;;;;8.50;2.33;;;;;;;-147.76;100.00;60361.69;5071603;28;20040;-77
2022/05/28 08:19:25;;;;;;;9.27;1.92;;;;;;;-147.76;100.00;60361.69;5071918;28;20048;-77
2022/05/28 08:24:38;;;;;;;6.55;2.85;;;;;;;-147.76;100.00;60361.69;5072119;28;20398;-77
2022/05/28 08:27:06;;;;;;;5.03;1.90;;;;;;;-147.76;100.00;60361.69;5071839;28;20067;-77
2022/05/28 08:29:35;;;;;;;8.82;2.40;;;;;;;-147.76;100.00;60361.69;5071847;28;20402;-77
2022/05/28 08:32:02;;;;;;;2.92;1.60;;;;;;;-147.76;100.00;60361.69;5071785;27;20055;-77
2022/05/28 08:34:30;;;;;;;4.30;1.70;;;;;;;-147.76;100.00;60361.69;5071752;28;20049;-76
2022/05/28 08:36:57;;;;;;;4.82;1.80;;;;;;;-147.76;100.00;60361.69;5071821;28;20116;-77
2022/05/28 08:39:25;;;;;;;4.07;1.60;;;;;;;-147.76;100.00;60361.69;5071567;28;20048;-77
2022/05/28 08:41:57;;;;;;;4.13;1.70;;;;;;;-147.76;100.00;60361.69;5071635;28;20406;-76
2022/05/28 08:44:26;;;;;;;2.80;1.65;;;;;;;-147.76;100.00;60361.69;5071415;28;20052;-76
2022/05/28 08:46:58;;;;;;;5.25;1.90;;;;;;;-147.76;100.00;60361.69;5071393;28;20044;-77
2022/05/28 08:49:28;;;;;;;5.00;2.10;;;;;;;-147.76;100.00;60361.69;5072961;28;20498;-77
2022/05/28 08:52:03;;;;;;;3.30;1.92;;;;;;;-147.76;100.00;60361.69;5071205;28;20052;-77
2022/05/28 08:54:34;;;;;;;4.95;2.42;;;;;;;-147.76;100.00;60361.69;5071540;28;20464;-77
2022/05/28 08:57:03;;;;;;;4.38;2.40;;;;;;;-147.76;100.00;60361.69;5071993;28;20040;-76
2022/05/28 08:59:34;;;;;;;5.75;2.20;;;;;;;-147.76;100.00;60361.69;5070830;28;20041;-77
2022/05/28 09:02:07;;;;;;;7.35;2.20;;;;;;;-147.76;100.00;60361.69;5071290;28;20049;-77
2022/05/28 09:04:41;;;;;;;4.15;2.20;;;;;;;-147.76;100.00;60361.69;5071431;28;20057;-77
2022/05/28 09:07:13;;;;;;;7.05;2.80;;;;;;;-147.76;100.00;60361.69;5071588;28;20085;-77
2022/05/28 09:09:42;;;;;;;7.70;3.10;;;;;;;-147.76;100.00;60361.69;5070922;28;20048;-77
2022/05/28 09:12:12;;;;;;;6.35;2.63;;;;;;;-147.76;100.00;60361.69;5071181;28;20041;-77
2022/05/28 09:14:40;;;;;;;9.35;2.90;;;;;;;-147.76;100.00;60361.69;5070982;28;20049;-77
2022/05/28 09:17:17;;;;;;;6.97;2.30;;;;;;;-147.76;100.00;60361.69;5070994;28;20066;-77
2022/05/28 09:19:45;;;;;;;5.38;2.00;;;;;;;-147.76;100.00;60361.69;5071835;28;20046;-77
2022/05/28 09:22:13;;;;;;;5.28;2.20;;;;;;;-147.76;100.00;60361.69;5070797;28;20045;-78
2022/05/28 09:24:42;;;;;;;6.63;2.30;;;;;;;-147.76;100.00;60361.69;5070798;28;20048;-78
2022/05/28 09:27:20;;;;;;;7.63;2.58;;;;;;;-147.76;100.00;60361.69;5070864;28;20071;-77
2022/05/28 09:30:10;;;;;;;4.30;2.08;;;;;;;-147.76;100.00;60361.69;5070740;28;20069;-77
2022/05/28 09:33:10;;;;;;;7.20;2.50;;;;;;;-147.76;100.00;60361.69;5071114;28;20506;-76
2022/05/28 09:35:49;;;;;;;6.30;2.47;;;;;;;-147.76;100.00;60361.69;5051154;28;20053;-76
2022/05/28 09:38:21;;;;;;;6.00;2.35;;;;;;;-147.76;100.00;60361.69;5070604;28;20047;-77
2022/05/28 09:40:51;;;;;;;5.22;2.28;;;;;;;-147.76;100.00;60361.69;5072097;28;20044;-77
2022/05/28 09:43:43;;;;;;;6.47;2.40;;;;;;;-147.76;100.00;60361.69;5070207;28;20078;-77
2022/05/28 09:46:16;;;;;;;8.73;3.30;;;;;;;-147.76;100.00;60361.69;5071939;28;20415;-77
2022/05/28 09:48:46;;;;;;;8.75;3.17;;;;;;;-147.76;100.00;60361.69;5070821;27;20501;-77
2022/05/28 09:51:24;;;;;;;10.40;3.75;;;;;;;-147.76;100.00;60361.69;5070733;28;20052;-77
2022/05/28 09:56:45;;;;;;;10.25;3.30;;;;;;;-147.76;100.00;60361.69;5069612;28;20057;-77
2022/05/28 09:59:23;;;;;;;11.95;3.05;;;;;;;-147.76;100.00;60361.69;5050432;28;20041;-77
2022/05/28 10:01:57;;;;;;;8.43;2.65;;;;;;;-147.76;100.00;60361.69;5050740;28;20045;-76
2022/05/28 10:04:32;;;;;;;8.15;3.00;;;;;;;-147.76;100.00;60361.69;5050743;28;20503;-77
2022/05/28 10:07:02;;;;;;;7.28;2.60;;;;;;;-147.76;100.00;60361.69;5051267;28;20510;-78
2022/05/28 10:09:31;;;;;;;11.30;4.97;;;;;;;-147.76;100.00;60361.69;5051720;28;20045;-77
2022/05/28 10:12:00;;;;;;;10.95;3.13;;;;;;;-147.76;100.00;60361.69;5049920;28;20410;-77
2022/05/28 10:14:30;;;;;;;7.75;2.50;;;;;;;-147.76;100.00;60361.69;5050198;28;20044;-77
2022/05/28 10:16:59;;;;;;;8.82;2.88;;;;;;;-147.76;100.00;60361.69;5050092;28;20094;-77
2022/05/28 10:19:32;;;;;;;7.25;2.33;;;;;;;-147.76;100.00;60361.69;5049903;28;20049;-77
2022/05/28 10:22:02;;;;;;;7.90;2.38;;;;;;;-147.76;100.00;60361.69;5050245;28;20088;-77
2022/05/28 10:24:35;;;;;;;7.88;2.10;;;;;;;-147.76;100.00;60361.69;5050575;28;20041;-77
2022/05/28 10:27:02;;;;;;;7.13;2.25;;;;;;;-147.76;100.00;60361.69;5050543;28;20483;-77
2022/05/28 10:29:36;;;;;;;6.35;2.05;;;;;;;-147.76;100.00;60361.69;5049961;28;20070;-77
2022/05/28 10:32:03;;;;;;;7.47;2.40;;;;;;;-147.76;100.00;60361.69;5051808;27;20037;-77
2022/05/28 10:34:37;;;;;;;7.55;2.30;;;;;;;-147.76;100.00;60361.69;5049889;28;20056;-77
2022/05/28 10:37:13;;;;;;;6.43;2.38;;;;;;;-147.76;100.00;60361.69;5050630;28;20056;-77
2022/05/28 10:39:41;;;;;;;9.10;2.30;;;;;;;-147.76;100.00;60361.69;5050532;28;20052;-77
2022/05/28 10:42:10;;;;;;;6.18;2.20;;;;;;;-147.76;100.00;60361.69;5049391;28;20048;-77
2022/05/28 10:44:39;;;;;;;6.38;2.30;;;;;;;-147.76;100.00;60361.69;5049800;28;20102;-77
2022/05/28 10:47:22;;;;;;;4.45;1.83;;;;;;;-147.76;100.00;60361.69;5049771;28;20053;-77
2022/05/28 10:49:58;;;;;;;5.63;2.00;;;;;;;-147.76;100.00;60361.69;5049664;28;20418;-77
2022/05/28 10:52:42;;;;;;;8.57;2.60;;;;;;;-147.76;100.00;60361.69;5050429;27;20407;-77
2022/05/28 10:55:11;;;;;;;6.93;2.42;;;;;;;-147.76;100.00;60361.69;5049680;28;20406;-77
2022/05/28 10:58:11;;;;;;;6.47;2.00;;;;;;;-147.76;100.00;60361.69;5056663;28;20045;-77
2022/05/28 11:00:46;;;;;;;7.50;2.20;;;;;;;-147.76;100.00;60361.69;5090604;28;20048;-77
2022/05/28 11:03:44;;;;;;;4.88;2.00;;;;;;;-147.76;100.00;60361.69;5091080;28;20063;-77
2022/05/28 11:06:41;;;;;;;6.97;2.10;;;;;;;-147.76;100.00;60361.69;5092858;28;20121;-77
2022/05/28 11:09:14;;;;;;;7.28;1.80;;;;;;;-147.76;100.00;60361.69;5034492;28;20612;-77
2022/05/28 11:11:51;;;;;;;4.90;2.03;;;;;;;-147.76;100.00;60361.69;5034183;28;20049;-77
2022/05/28 11:14:31;;;;;;;5.05;1.75;;;;;;;-147.76;100.00;60361.69;5035400;28;20064;-77
2022/05/28 11:17:07;;;;;;;8.57;2.13;;;;;;;-147.76;100.00;60361.69;5034971;28;20053;-77
2022/05/28 11:19:44;;;;;;;7.00;2.35;;;;;;;-147.76;100.00;60361.69;5035449;28;20421;-77
2022/05/28 11:22:31;;;;;;;5.80;2.00;;;;;;;-147.76;100.00;60361.69;5035239;28;20054;-77
2022/05/28 11:25:05;;;;;;;4.65;1.90;;;;;;;-147.76;100.00;60361.69;5034647;28;20142;-77
2022/05/28 11:27:55;;;;;;;8.90;2.20;;;;;;;-147.76;100.00;60361.69;5033945;28;20112;-77
2022/05/28 11:30:24;;;;;;;5.85;2.42;;;;;;;-147.76;100.00;60361.69;5034604;28;20069;-77